sensor_id;sensor_type;location;lat;lon;timestamp;pressure;altitude;pressure_sealevel;temperature;humidity
69058;BME280;56128;37.534;-122.308;2024-02-28T00:01:37;101569.34;;;15.24;57.22
69058;BME280;56128;37.534;-122.308;2024-02-28T00:04:04;101573.50;;;15.28;54.40
69058;BME280;56128;37.534;-122.308;2024-02-28T00:06:30;101564.75;;;15.36;54.27
69058;BME280;56128;37.534;-122.308;2024-02-28T00:08:56;101571.72;;;15.38;54.84
69058;BME280;56128;37.534;-122.308;2024-02-28T00:11:22;101571.88;;;15.37;61.34
69058;BME280;56128;37.534;-122.308;2024-02-28T00:13:48;101578.50;;;15.33;59.11
69058;BME280;56128;37.534;-122.308;2024-02-28T00:16:14;101572.78;;;15.26;57.60
69058;BME280;56128;37.534;-122.308;2024-02-28T00:18:41;101569.09;;;15.27;57.84
69058;BME280;56128;37.534;-122.308;2024-02-28T00:21:07;101573.03;;;15.23;56.76
69058;BME280;56128;37.534;-122.308;2024-02-28T00:23:33;101573.03;;;15.23;59.83
69058;BME280;56128;37.534;-122.308;2024-02-28T00:25:59;101577.72;;;15.21;57.64
69058;BME280;56128;37.534;-122.308;2024-02-28T00:28:25;101575.00;;;15.21;55.56
69058;BME280;56128;37.534;-122.308;2024-02-28T00:30:51;101574.50;;;15.16;59.18
69058;BME280;56128;37.534;-122.308;2024-02-28T00:33:17;101576.72;;;15.10;63.37
69058;BME280;56128;37.534;-122.308;2024-02-28T00:35:43;101571.38;;;14.99;60.40
69058;BME280;56128;37.534;-122.308;2024-02-28T00:38:10;101576.41;;;14.92;64.41
69058;BME280;56128;37.534;-122.308;2024-02-28T00:40:36;101577.75;;;14.87;64.52
69058;BME280;56128;37.534;-122.308;2024-02-28T00:43:02;101576.09;;;14.86;61.27
69058;BME280;56128;37.534;-122.308;2024-02-28T00:45:28;101573.63;;;14.83;65.58
69058;BME280;56128;37.534;-122.308;2024-02-28T00:47:55;101579.03;;;14.71;62.60
69058;BME280;56128;37.534;-122.308;2024-02-28T00:50:21;101585.78;;;14.66;65.37
69058;BME280;56128;37.534;-122.308;2024-02-28T00:52:47;101576.31;;;14.60;65.86
69058;BME280;56128;37.534;-122.308;2024-02-28T00:55:13;101580.34;;;14.54;72.25
69058;BME280;56128;37.534;-122.308;2024-02-28T00:57:39;101582.94;;;14.44;71.54
69058;BME280;56128;37.534;-122.308;2024-02-28T01:00:06;101579.75;;;14.39;76.95
69058;BME280;56128;37.534;-122.308;2024-02-28T01:02:34;101581.56;;;14.39;69.88
69058;BME280;56128;37.534;-122.308;2024-02-28T01:05:01;101575.47;;;14.37;72.24
69058;BME280;56128;37.534;-122.308;2024-02-28T01:07:27;101585.22;;;14.26;75.87
69058;BME280;56128;37.534;-122.308;2024-02-28T01:09:53;101583.66;;;14.24;72.26
69058;BME280;56128;37.534;-122.308;2024-02-28T01:12:19;101590.47;;;14.17;75.12
69058;BME280;56128;37.534;-122.308;2024-02-28T01:14:45;101583.63;;;14.12;74.99
69058;BME280;56128;37.534;-122.308;2024-02-28T01:17:11;101588.53;;;14.07;78.80
69058;BME280;56128;37.534;-122.308;2024-02-28T01:19:38;101588.03;;;14.02;81.00
69058;BME280;56128;37.534;-122.308;2024-02-28T01:22:04;101585.06;;;13.94;81.00
69058;BME280;56128;37.534;-122.308;2024-02-28T01:24:31;101585.78;;;13.85;79.56
69058;BME280;56128;37.534;-122.308;2024-02-28T01:26:59;101583.44;;;13.80;82.28
69058;BME280;56128;37.534;-122.308;2024-02-28T01:29:25;101583.53;;;13.67;85.48
69058;BME280;56128;37.534;-122.308;2024-02-28T01:31:51;101571.00;;;13.55;85.39
69058;BME280;56128;37.534;-122.308;2024-02-28T01:34:17;101576.72;;;13.50;88.45
69058;BME280;56128;37.534;-122.308;2024-02-28T01:36:44;101573.16;;;13.38;88.10
69058;BME280;56128;37.534;-122.308;2024-02-28T01:39:10;101582.84;;;13.28;88.60
69058;BME280;56128;37.534;-122.308;2024-02-28T01:41:37;101579.34;;;13.14;92.89
69058;BME280;56128;37.534;-122.308;2024-02-28T01:44:03;101579.06;;;13.06;94.78
69058;BME280;56128;37.534;-122.308;2024-02-28T01:46:29;101566.56;;;12.94;93.90
69058;BME280;56128;37.534;-122.308;2024-02-28T01:48:57;101575.50;;;12.81;95.90
69058;BME280;56128;37.534;-122.308;2024-02-28T01:51:25;101578.13;;;12.70;96.49
69058;BME280;56128;37.534;-122.308;2024-02-28T01:53:56;101584.25;;;12.59;96.89
69058;BME280;56128;37.534;-122.308;2024-02-28T01:56:23;101578.56;;;12.51;95.50
69058;BME280;56128;37.534;-122.308;2024-02-28T01:58:51;101580.09;;;12.42;96.26
69058;BME280;56128;37.534;-122.308;2024-02-28T02:01:18;101580.44;;;12.25;99.69
69058;BME280;56128;37.534;-122.308;2024-02-28T02:03:44;101577.00;;;12.23;99.57
69058;BME280;56128;37.534;-122.308;2024-02-28T02:06:11;101582.97;;;12.13;99.44
69058;BME280;56128;37.534;-122.308;2024-02-28T02:08:38;101587.09;;;12.06;99.83
69058;BME280;56128;37.534;-122.308;2024-02-28T02:11:05;101588.56;;;11.97;100.00
69058;BME280;56128;37.534;-122.308;2024-02-28T02:13:32;101585.94;;;11.83;100.00
69058;BME280;56128;37.534;-122.308;2024-02-28T02:15:58;101589.16;;;11.75;100.00
69058;BME280;56128;37.534;-122.308;2024-02-28T02:18:24;101592.53;;;11.64;100.00
69058;BME280;56128;37.534;-122.308;2024-02-28T02:20:54;101591.34;;;11.56;100.00
69058;BME280;56128;37.534;-122.308;2024-02-28T02:23:22;101601.19;;;11.42;100.00
69058;BME280;56128;37.534;-122.308;2024-02-28T02:25:49;101600.16;;;11.30;100.00
69058;BME280;56128;37.534;-122.308;2024-02-28T02:28:15;101603.34;;;11.23;100.00
69058;BME280;56128;37.534;-122.308;2024-02-28T02:30:41;101605.09;;;11.09;100.00
69058;BME280;56128;37.534;-122.308;2024-02-28T02:33:08;101604.88;;;10.99;100.00
69058;BME280;56128;37.534;-122.308;2024-02-28T02:35:35;101596.28;;;10.94;100.00
69058;BME280;56128;37.534;-122.308;2024-02-28T02:38:02;101609.38;;;10.84;100.00
69058;BME280;56128;37.534;-122.308;2024-02-28T02:40:28;101597.44;;;10.76;100.00
69058;BME280;56128;37.534;-122.308;2024-02-28T02:42:54;101599.84;;;10.66;100.00
69058;BME280;56128;37.534;-122.308;2024-02-28T02:45:20;101601.38;;;10.55;100.00
69058;BME280;56128;37.534;-122.308;2024-02-28T02:47:46;101606.19;;;10.50;100.00
69058;BME280;56128;37.534;-122.308;2024-02-28T02:50:12;101600.31;;;10.44;100.00
69058;BME280;56128;37.534;-122.308;2024-02-28T02:52:39;101600.88;;;10.34;100.00
69058;BME280;56128;37.534;-122.308;2024-02-28T02:55:05;101606.69;;;10.27;100.00
69058;BME280;56128;37.534;-122.308;2024-02-28T02:57:32;101612.31;;;10.22;100.00
69058;BME280;56128;37.534;-122.308;2024-02-28T02:59:59;101615.66;;;10.11;100.00
69058;BME280;56128;37.534;-122.308;2024-02-28T03:02:25;101602.66;;;10.05;100.00
69058;BME280;56128;37.534;-122.308;2024-02-28T03:04:51;101610.97;;;10.00;100.00
69058;BME280;56128;37.534;-122.308;2024-02-28T03:07:17;101610.28;;;9.97;100.00
69058;BME280;56128;37.534;-122.308;2024-02-28T03:09:43;101605.31;;;9.90;100.00
69058;BME280;56128;37.534;-122.308;2024-02-28T03:12:09;101607.56;;;9.82;100.00
69058;BME280;56128;37.534;-122.308;2024-02-28T03:14:36;101610.69;;;9.74;100.00
69058;BME280;56128;37.534;-122.308;2024-02-28T03:17:02;101619.16;;;9.67;100.00
69058;BME280;56128;37.534;-122.308;2024-02-28T03:19:28;101617.81;;;9.59;100.00
69058;BME280;56128;37.534;-122.308;2024-02-28T03:21:54;101618.09;;;9.55;100.00
69058;BME280;56128;37.534;-122.308;2024-02-28T03:24:21;101613.84;;;9.51;100.00
69058;BME280;56128;37.534;-122.308;2024-02-28T03:26:47;101618.88;;;9.41;100.00
69058;BME280;56128;37.534;-122.308;2024-02-28T03:29:13;101622.88;;;9.34;100.00
69058;BME280;56128;37.534;-122.308;2024-02-28T03:31:39;101625.88;;;9.28;100.00
69058;BME280;56128;37.534;-122.308;2024-02-28T03:34:05;101623.38;;;9.24;100.00
69058;BME280;56128;37.534;-122.308;2024-02-28T03:36:31;101621.38;;;9.12;100.00
69058;BME280;56128;37.534;-122.308;2024-02-28T03:38:58;101619.00;;;9.07;100.00
69058;BME280;56128;37.534;-122.308;2024-02-28T03:41:24;101619.34;;;9.01;100.00
69058;BME280;56128;37.534;-122.308;2024-02-28T03:43:51;101626.66;;;8.98;100.00
69058;BME280;56128;37.534;-122.308;2024-02-28T03:46:17;101617.88;;;8.96;100.00
69058;BME280;56128;37.534;-122.308;2024-02-28T03:48:43;101619.78;;;8.93;100.00
69058;BME280;56128;37.534;-122.308;2024-02-28T03:51:09;101620.13;;;8.87;100.00
69058;BME280;56128;37.534;-122.308;2024-02-28T03:53:35;101632.66;;;8.85;100.00
69058;BME280;56128;37.534;-122.308;2024-02-28T03:56:02;101629.41;;;8.80;100.00
69058;BME280;56128;37.534;-122.308;2024-02-28T03:58:28;101632.50;;;8.72;100.00
69058;BME280;56128;37.534;-122.308;2024-02-28T04:00:54;101635.41;;;8.68;100.00
69058;BME280;56128;37.534;-122.308;2024-02-28T04:03:21;101633.16;;;8.60;100.00
69058;BME280;56128;37.534;-122.308;2024-02-28T04:05:47;101635.13;;;8.56;100.00
69058;BME280;56128;37.534;-122.308;2024-02-28T04:08:13;101638.13;;;8.50;100.00
69058;BME280;56128;37.534;-122.308;2024-02-28T04:10:39;101642.00;;;8.43;100.00
69058;BME280;56128;37.534;-122.308;2024-02-28T04:13:05;101639.53;;;8.40;100.00
69058;BME280;56128;37.534;-122.308;2024-02-28T04:15:32;101646.72;;;8.38;100.00
69058;BME280;56128;37.534;-122.308;2024-02-28T04:17:59;101644.25;;;8.35;100.00
69058;BME280;56128;37.534;-122.308;2024-02-28T04:20:25;101652.31;;;8.33;100.00
69058;BME280;56128;37.534;-122.308;2024-02-28T04:22:51;101647.16;;;8.30;100.00
69058;BME280;56128;37.534;-122.308;2024-02-28T04:25:17;101648.31;;;8.24;100.00
69058;BME280;56128;37.534;-122.308;2024-02-28T04:27:44;101653.91;;;8.20;100.00
69058;BME280;56128;37.534;-122.308;2024-02-28T04:30:12;101653.28;;;8.15;100.00
69058;BME280;56128;37.534;-122.308;2024-02-28T04:32:38;101652.56;;;8.11;100.00
69058;BME280;56128;37.534;-122.308;2024-02-28T04:35:04;101664.34;;;8.07;100.00
69058;BME280;56128;37.534;-122.308;2024-02-28T04:37:32;101660.19;;;8.01;100.00
69058;BME280;56128;37.534;-122.308;2024-02-28T04:40:00;101663.00;;;7.98;100.00
69058;BME280;56128;37.534;-122.308;2024-02-28T04:42:27;101659.69;;;7.93;100.00
69058;BME280;56128;37.534;-122.308;2024-02-28T04:44:53;101666.22;;;7.87;100.00
69058;BME280;56128;37.534;-122.308;2024-02-28T04:47:19;101666.22;;;7.87;100.00
69058;BME280;56128;37.534;-122.308;2024-02-28T04:49:45;101673.41;;;7.85;100.00
69058;BME280;56128;37.534;-122.308;2024-02-28T04:52:11;101669.97;;;7.83;100.00
69058;BME280;56128;37.534;-122.308;2024-02-28T04:54:40;101679.94;;;7.79;100.00
69058;BME280;56128;37.534;-122.308;2024-02-28T04:57:06;101683.59;;;7.77;100.00
69058;BME280;56128;37.534;-122.308;2024-02-28T04:59:32;101683.13;;;7.69;100.00
69058;BME280;56128;37.534;-122.308;2024-02-28T05:01:59;101680.31;;;7.72;100.00
69058;BME280;56128;37.534;-122.308;2024-02-28T05:04:25;101691.91;;;7.71;100.00
69058;BME280;56128;37.534;-122.308;2024-02-28T05:06:51;101692.84;;;7.70;100.00
69058;BME280;56128;37.534;-122.308;2024-02-28T05:09:17;101695.50;;;7.70;100.00
69058;BME280;56128;37.534;-122.308;2024-02-28T05:11:44;101692.91;;;7.68;100.00
69058;BME280;56128;37.534;-122.308;2024-02-28T05:14:10;101693.97;;;7.64;100.00
69058;BME280;56128;37.534;-122.308;2024-02-28T05:16:37;101701.28;;;7.60;100.00
69058;BME280;56128;37.534;-122.308;2024-02-28T05:19:03;101702.22;;;7.59;100.00
69058;BME280;56128;37.534;-122.308;2024-02-28T05:21:30;101705.66;;;7.61;100.00
69058;BME280;56128;37.534;-122.308;2024-02-28T05:23:56;101695.00;;;7.61;100.00
69058;BME280;56128;37.534;-122.308;2024-02-28T05:26:22;101695.25;;;7.57;100.00
69058;BME280;56128;37.534;-122.308;2024-02-28T05:28:48;101689.19;;;7.53;100.00
69058;BME280;56128;37.534;-122.308;2024-02-28T05:31:22;101694.66;;;7.50;100.00
69058;BME280;56128;37.534;-122.308;2024-02-28T05:33:51;101698.25;;;7.49;100.00
69058;BME280;56128;37.534;-122.308;2024-02-28T05:36:17;101699.34;;;7.45;100.00
69058;BME280;56128;37.534;-122.308;2024-02-28T05:38:47;101686.31;;;7.39;100.00
69058;BME280;56128;37.534;-122.308;2024-02-28T05:41:13;101692.66;;;7.36;100.00
69058;BME280;56128;37.534;-122.308;2024-02-28T05:43:41;101693.59;;;7.35;100.00
69058;BME280;56128;37.534;-122.308;2024-02-28T05:46:07;101707.06;;;7.32;100.00
69058;BME280;56128;37.534;-122.308;2024-02-28T05:48:33;101700.84;;;7.31;100.00
69058;BME280;56128;37.534;-122.308;2024-02-28T05:51:03;101702.69;;;7.31;100.00
69058;BME280;56128;37.534;-122.308;2024-02-28T05:53:30;101695.84;;;7.25;100.00
69058;BME280;56128;37.534;-122.308;2024-02-28T05:56:05;101703.03;;;7.23;100.00
69058;BME280;56128;37.534;-122.308;2024-02-28T05:58:42;101703.16;;;7.20;100.00
69058;BME280;56128;37.534;-122.308;2024-02-28T06:01:15;101696.16;;;7.19;100.00
69058;BME280;56128;37.534;-122.308;2024-02-28T06:03:42;101706.91;;;7.16;100.00
69058;BME280;56128;37.534;-122.308;2024-02-28T06:06:08;101707.06;;;7.13;100.00
69058;BME280;56128;37.534;-122.308;2024-02-28T06:08:38;101707.28;;;7.08;100.00
69058;BME280;56128;37.534;-122.308;2024-02-28T06:11:04;101701.31;;;7.03;100.00
69058;BME280;56128;37.534;-122.308;2024-02-28T06:13:31;101697.94;;;6.99;100.00
69058;BME280;56128;37.534;-122.308;2024-02-28T06:15:57;101707.00;;;6.95;100.00
69058;BME280;56128;37.534;-122.308;2024-02-28T06:18:25;101707.03;;;6.94;100.00
69058;BME280;56128;37.534;-122.308;2024-02-28T06:20:55;101704.47;;;6.92;100.00
69058;BME280;56128;37.534;-122.308;2024-02-28T06:23:22;101701.78;;;6.92;100.00
69058;BME280;56128;37.534;-122.308;2024-02-28T06:25:48;101704.59;;;6.89;100.00
69058;BME280;56128;37.534;-122.308;2024-02-28T06:28:15;101705.63;;;6.87;100.00
69058;BME280;56128;37.534;-122.308;2024-02-28T06:30:43;101707.63;;;6.81;100.00
69058;BME280;56128;37.534;-122.308;2024-02-28T06:33:12;101713.88;;;6.80;100.00
69058;BME280;56128;37.534;-122.308;2024-02-28T06:35:39;101698.03;;;6.77;100.00
69058;BME280;56128;37.534;-122.308;2024-02-28T06:38:05;101706.91;;;6.78;100.00
69058;BME280;56128;37.534;-122.308;2024-02-28T06:40:33;101708.75;;;6.76;100.00
69058;BME280;56128;37.534;-122.308;2024-02-28T06:43:00;101704.59;;;6.70;100.00
69058;BME280;56128;37.534;-122.308;2024-02-28T06:45:26;101709.19;;;6.66;100.00
69058;BME280;56128;37.534;-122.308;2024-02-28T06:47:53;101705.72;;;6.64;100.00
69058;BME280;56128;37.534;-122.308;2024-02-28T06:50:19;101718.19;;;6.62;100.00
69058;BME280;56128;37.534;-122.308;2024-02-28T06:52:45;101720.94;;;6.61;100.00
69058;BME280;56128;37.534;-122.308;2024-02-28T06:55:11;101717.50;;;6.59;100.00
69058;BME280;56128;37.534;-122.308;2024-02-28T06:57:40;101720.19;;;6.57;100.00
69058;BME280;56128;37.534;-122.308;2024-02-28T07:00:08;101715.81;;;6.56;100.00
69058;BME280;56128;37.534;-122.308;2024-02-28T07:02:35;101720.44;;;6.53;100.00
69058;BME280;56128;37.534;-122.308;2024-02-28T07:05:02;101710.97;;;6.45;100.00
69058;BME280;56128;37.534;-122.308;2024-02-28T07:07:32;101719.06;;;6.42;100.00
69058;BME280;56128;37.534;-122.308;2024-02-28T07:09:59;101714.91;;;6.37;100.00
69058;BME280;56128;37.534;-122.308;2024-02-28T07:12:26;101710.44;;;6.37;100.00
69058;BME280;56128;37.534;-122.308;2024-02-28T07:14:52;101703.34;;;6.38;100.00
69058;BME280;56128;37.534;-122.308;2024-02-28T07:17:18;101707.84;;;6.36;100.00
69058;BME280;56128;37.534;-122.308;2024-02-28T07:19:44;101706.84;;;6.38;100.00
69058;BME280;56128;37.534;-122.308;2024-02-28T07:22:10;101702.69;;;6.32;100.00
69058;BME280;56128;37.534;-122.308;2024-02-28T07:24:36;101708.78;;;6.34;100.00
69058;BME280;56128;37.534;-122.308;2024-02-28T07:27:04;101706.28;;;6.31;100.00
69058;BME280;56128;37.534;-122.308;2024-02-28T07:29:30;101702.81;;;6.29;100.00
69058;BME280;56128;37.534;-122.308;2024-02-28T07:31:56;101704.72;;;6.26;100.00
69058;BME280;56128;37.534;-122.308;2024-02-28T07:34:22;101705.72;;;6.23;100.00
69058;BME280;56128;37.534;-122.308;2024-02-28T07:36:48;101710.13;;;6.24;100.00
69058;BME280;56128;37.534;-122.308;2024-02-28T07:39:15;101704.00;;;6.22;100.00
69058;BME280;56128;37.534;-122.308;2024-02-28T07:41:42;101713.84;;;6.20;100.00
69058;BME280;56128;37.534;-122.308;2024-02-28T07:44:08;101718.50;;;6.15;100.00
69058;BME280;56128;37.534;-122.308;2024-02-28T07:46:34;101712.38;;;6.13;100.00
69058;BME280;56128;37.534;-122.308;2024-02-28T07:49:01;101714.28;;;6.09;100.00
69058;BME280;56128;37.534;-122.308;2024-02-28T07:51:28;101713.44;;;6.09;100.00
69058;BME280;56128;37.534;-122.308;2024-02-28T07:53:54;101716.13;;;6.07;100.00
69058;BME280;56128;37.534;-122.308;2024-02-28T07:56:21;101712.69;;;6.05;100.00
69058;BME280;56128;37.534;-122.308;2024-02-28T07:58:47;101719.00;;;6.03;100.00
69058;BME280;56128;37.534;-122.308;2024-02-28T08:01:14;101721.69;;;6.01;100.00
69058;BME280;56128;37.534;-122.308;2024-02-28T08:03:42;101719.13;;;5.99;100.00
69058;BME280;56128;37.534;-122.308;2024-02-28T08:06:09;101725.53;;;5.94;100.00
69058;BME280;56128;37.534;-122.308;2024-02-28T08:08:36;101722.00;;;5.93;100.00
69058;BME280;56128;37.534;-122.308;2024-02-28T08:11:02;101720.22;;;5.94;100.00
69058;BME280;56128;37.534;-122.308;2024-02-28T08:13:29;101718.47;;;5.93;100.00
69058;BME280;56128;37.534;-122.308;2024-02-28T08:15:55;101722.91;;;5.92;100.00
69058;BME280;56128;37.534;-122.308;2024-02-28T08:18:21;101723.06;;;5.89;100.00
69058;BME280;56128;37.534;-122.308;2024-02-28T08:20:48;101728.38;;;5.89;100.00
69058;BME280;56128;37.534;-122.308;2024-02-28T08:23:15;101726.63;;;5.88;100.00
69058;BME280;56128;37.534;-122.308;2024-02-28T08:25:41;101727.44;;;5.90;100.00
69058;BME280;56128;37.534;-122.308;2024-02-28T08:28:07;101717.88;;;5.86;100.00
69058;BME280;56128;37.534;-122.308;2024-02-28T08:30:33;101730.34;;;5.84;100.00
69058;BME280;56128;37.534;-122.308;2024-02-28T08:32:59;101726.88;;;5.82;100.00
69058;BME280;56128;37.534;-122.308;2024-02-28T08:35:26;101725.03;;;5.84;100.00
69058;BME280;56128;37.534;-122.308;2024-02-28T08:37:52;101725.03;;;5.84;100.00
69058;BME280;56128;37.534;-122.308;2024-02-28T08:40:18;101724.16;;;5.83;100.00
69058;BME280;56128;37.534;-122.308;2024-02-28T08:42:44;101719.78;;;5.82;100.00
69058;BME280;56128;37.534;-122.308;2024-02-28T08:45:12;101717.25;;;5.79;100.00
69058;BME280;56128;37.534;-122.308;2024-02-28T08:47:38;101724.28;;;5.80;100.00
69058;BME280;56128;37.534;-122.308;2024-02-28T08:50:04;101719.91;;;5.79;100.00
69058;BME280;56128;37.534;-122.308;2024-02-28T08:52:30;101734.06;;;5.80;100.00
69058;BME280;56128;37.534;-122.308;2024-02-28T08:54:57;101731.44;;;5.78;100.00
69058;BME280;56128;37.534;-122.308;2024-02-28T08:57:23;101720.03;;;5.76;100.00
69058;BME280;56128;37.534;-122.308;2024-02-28T08:59:50;101721.06;;;5.72;100.00
69058;BME280;56128;37.534;-122.308;2024-02-28T09:02:16;101721.22;;;5.69;100.00
69058;BME280;56128;37.534;-122.308;2024-02-28T09:04:42;101723.13;;;5.65;100.00
69058;BME280;56128;37.534;-122.308;2024-02-28T09:07:08;101724.94;;;5.65;100.00
69058;BME280;56128;37.534;-122.308;2024-02-28T09:09:34;101726.78;;;5.63;100.00
69058;BME280;56128;37.534;-122.308;2024-02-28T09:12:23;101719.72;;;5.62;100.00
69058;BME280;56128;37.534;-122.308;2024-02-28T09:14:49;101718.06;;;5.59;100.00
69058;BME280;56128;37.534;-122.308;2024-02-28T09:17:22;101724.28;;;5.58;100.00
69058;BME280;56128;37.534;-122.308;2024-02-28T09:19:48;101720.84;;;5.56;100.00
69058;BME280;56128;37.534;-122.308;2024-02-28T09:22:14;101722.69;;;5.54;100.00
69058;BME280;56128;37.534;-122.308;2024-02-28T09:24:42;101725.25;;;5.57;100.00
69058;BME280;56128;37.534;-122.308;2024-02-28T09:27:08;101715.72;;;5.51;100.00
69058;BME280;56128;37.534;-122.308;2024-02-28T09:29:34;101728.13;;;5.51;100.00
69058;BME280;56128;37.534;-122.308;2024-02-28T09:32:00;101723.00;;;5.46;100.00
69058;BME280;56128;37.534;-122.308;2024-02-28T09:34:26;101723.84;;;5.47;100.00
69058;BME280;56128;37.534;-122.308;2024-02-28T09:36:53;101720.41;;;5.45;100.00
69058;BME280;56128;37.534;-122.308;2024-02-28T09:39:19;101724.91;;;5.43;100.00
69058;BME280;56128;37.534;-122.308;2024-02-28T09:41:48;101724.91;;;5.43;100.00
69058;BME280;56128;37.534;-122.308;2024-02-28T09:44:17;101716.94;;;5.43;100.00
69058;BME280;56128;37.534;-122.308;2024-02-28T09:46:44;101719.72;;;5.40;100.00
69058;BME280;56128;37.534;-122.308;2024-02-28T09:49:10;101702.00;;;5.40;100.00
69058;BME280;56128;37.534;-122.308;2024-02-28T09:51:36;101705.66;;;5.38;100.00
69058;BME280;56128;37.534;-122.308;2024-02-28T09:54:05;101705.66;;;5.38;100.00
69058;BME280;56128;37.534;-122.308;2024-02-28T09:56:32;101703.81;;;5.40;100.00
69058;BME280;56128;37.534;-122.308;2024-02-28T09:58:59;101712.69;;;5.39;100.00
69058;BME280;56128;37.534;-122.308;2024-02-28T10:01:29;101694.22;;;5.35;100.00
69058;BME280;56128;37.534;-122.308;2024-02-28T10:03:56;101692.44;;;5.36;100.00
69058;BME280;56128;37.534;-122.308;2024-02-28T10:06:24;101690.63;;;5.36;100.00
69058;BME280;56128;37.534;-122.308;2024-02-28T10:08:51;101684.41;;;5.38;100.00
69058;BME280;56128;37.534;-122.308;2024-02-28T10:11:19;101682.81;;;5.33;100.00
69058;BME280;56128;37.534;-122.308;2024-02-28T10:13:47;101683.84;;;5.29;100.00
69058;BME280;56128;37.534;-122.308;2024-02-28T10:16:13;101681.16;;;5.31;100.00
69058;BME280;56128;37.534;-122.308;2024-02-28T10:18:43;101675.13;;;5.26;100.00
69058;BME280;56128;37.534;-122.308;2024-02-28T10:21:10;101677.84;;;5.24;100.00
69058;BME280;56128;37.534;-122.308;2024-02-28T10:23:41;101668.28;;;5.20;100.00
69058;BME280;56128;37.534;-122.308;2024-02-28T10:26:11;101668.28;;;5.20;100.00
69058;BME280;56128;37.534;-122.308;2024-02-28T10:28:41;101664.03;;;5.16;100.00
69058;BME280;56128;37.534;-122.308;2024-02-28T10:31:09;101671.31;;;5.11;100.00
69058;BME280;56128;37.534;-122.308;2024-02-28T10:33:36;101670.44;;;5.10;100.00
69058;BME280;56128;37.534;-122.308;2024-02-28T10:36:05;101671.31;;;5.11;100.00
69058;BME280;56128;37.534;-122.308;2024-02-28T10:38:32;101669.81;;;5.03;100.00
69058;BME280;56128;37.534;-122.308;2024-02-28T10:41:02;101676.19;;;4.98;100.00
69058;BME280;56128;37.534;-122.308;2024-02-28T10:43:29;101667.47;;;4.96;100.00
69058;BME280;56128;37.534;-122.308;2024-02-28T10:45:57;101671.94;;;4.94;100.00
69058;BME280;56128;37.534;-122.308;2024-02-28T10:48:24;101669.47;;;4.89;100.00
69058;BME280;56128;37.534;-122.308;2024-02-28T10:50:51;101669.53;;;4.87;100.00
69058;BME280;56128;37.534;-122.308;2024-02-28T10:53:25;101674.06;;;4.84;100.00
69058;BME280;56128;37.534;-122.308;2024-02-28T10:56:02;101670.66;;;4.80;100.00
69058;BME280;56128;37.534;-122.308;2024-02-28T10:58:35;101669.13;;;4.75;100.00
69058;BME280;56128;37.534;-122.308;2024-02-28T11:01:05;101674.53;;;4.71;100.00
69058;BME280;56128;37.534;-122.308;2024-02-28T11:03:32;101670.28;;;4.67;100.00
69058;BME280;56128;37.534;-122.308;2024-02-28T11:05:58;101670.44;;;4.63;100.00
69058;BME280;56128;37.534;-122.308;2024-02-28T11:08:26;101665.31;;;4.58;100.00
69058;BME280;56128;37.534;-122.308;2024-02-28T11:10:57;101673.28;;;4.58;100.00
69058;BME280;56128;37.534;-122.308;2024-02-28T11:13:25;101661.03;;;4.54;100.00
69058;BME280;56128;37.534;-122.308;2024-02-28T11:15:52;101659.28;;;4.53;100.00
69058;BME280;56128;37.534;-122.308;2024-02-28T11:18:19;101652.38;;;4.49;100.00
69058;BME280;56128;37.534;-122.308;2024-02-28T11:20:45;101655.84;;;4.51;100.00
69058;BME280;56128;37.534;-122.308;2024-02-28T11:23:17;101657.63;;;4.50;100.00
69058;BME280;56128;37.534;-122.308;2024-02-28T11:25:43;101663.91;;;4.48;100.00
69058;BME280;56128;37.534;-122.308;2024-02-28T11:28:09;101666.56;;;4.48;100.00
69058;BME280;56128;37.534;-122.308;2024-02-28T11:30:36;101657.81;;;4.46;100.00
69058;BME280;56128;37.534;-122.308;2024-02-28T11:33:02;101659.63;;;4.44;100.00
69058;BME280;56128;37.534;-122.308;2024-02-28T11:35:28;101649.16;;;4.41;100.00
69058;BME280;56128;37.534;-122.308;2024-02-28T11:37:55;101655.44;;;4.38;100.00
69058;BME280;56128;37.534;-122.308;2024-02-28T11:40:24;101651.00;;;4.38;100.00
69058;BME280;56128;37.534;-122.308;2024-02-28T11:43:00;101650.16;;;4.38;100.00
69058;BME280;56128;37.534;-122.308;2024-02-28T11:45:29;101653.66;;;4.38;100.00
69058;BME280;56128;37.534;-122.308;2024-02-28T11:47:56;101659.00;;;4.37;100.00
69058;BME280;56128;37.534;-122.308;2024-02-28T11:50:22;101650.16;;;4.38;100.00
69058;BME280;56128;37.534;-122.308;2024-02-28T11:52:49;101652.72;;;4.39;100.00
69058;BME280;56128;37.534;-122.308;2024-02-28T11:55:15;101655.44;;;4.38;100.00
69058;BME280;56128;37.534;-122.308;2024-02-28T11:57:41;101654.56;;;4.37;100.00
69058;BME280;56128;37.534;-122.308;2024-02-28T12:00:08;101653.81;;;4.34;100.00
69058;BME280;56128;37.534;-122.308;2024-02-28T12:02:38;101656.56;;;4.31;100.00
69058;BME280;56128;37.534;-122.308;2024-02-28T12:05:05;101657.63;;;4.27;100.00
69058;BME280;56128;37.534;-122.308;2024-02-28T12:07:31;101652.31;;;4.27;100.00
69058;BME280;56128;37.534;-122.308;2024-02-28T12:09:59;101656.72;;;4.26;100.00
69058;BME280;56128;37.534;-122.308;2024-02-28T12:12:27;101658.53;;;4.26;100.00
69058;BME280;56128;37.534;-122.308;2024-02-28T12:15:00;101658.47;;;4.27;100.00
69058;BME280;56128;37.534;-122.308;2024-02-28T12:17:26;101665.56;;;4.27;100.00
69058;BME280;56128;37.534;-122.308;2024-02-28T12:19:53;101669.97;;;4.26;100.00